sensor_id;sensor_type;location;lat;lon;timestamp;pressure;altitude;pressure_sealevel;temperature;humidity
23733;BME280;12047;53.450;-2.286;2023-04-29T00:02:12;101475.75;;;18.73;100.00
23733;BME280;12047;53.450;-2.286;2023-04-29T00:07:13;101487.16;;;18.58;100.00
23733;BME280;12047;53.450;-2.286;2023-04-29T00:12:15;101488.06;;;17.86;100.00
23733;BME280;12047;53.450;-2.286;2023-04-29T00:17:17;101494.56;;;18.40;100.00
23733;BME280;12047;53.450;-2.286;2023-04-29T00:22:18;101494.75;;;17.82;100.00
23733;BME280;12047;53.450;-2.286;2023-04-29T00:27:18;101498.63;;;18.28;100.00
23733;BME280;12047;53.450;-2.286;2023-04-29T00:32:19;101507.59;;;17.04;100.00
23733;BME280;12047;53.450;-2.286;2023-04-29T00:37:19;101510.84;;;17.23;100.00
23733;BME280;12047;53.450;-2.286;2023-04-29T00:42:20;101508.69;;;17.27;100.00
23733;BME280;12047;53.450;-2.286;2023-04-29T00:47:21;101505.22;;;16.66;100.00
23733;BME280;12047;53.450;-2.286;2023-04-29T00:52:22;101512.75;;;16.02;100.00
23733;BME280;12047;53.450;-2.286;2023-04-29T00:57:22;101509.75;;;16.05;100.00
23733;BME280;12047;53.450;-2.286;2023-04-29T01:02:28;101516.09;;;16.99;100.00
23733;BME280;12047;53.450;-2.286;2023-04-29T01:07:33;101514.53;;;17.81;100.00
23733;BME280;12047;53.450;-2.286;2023-04-29T01:12:49;101515.56;;;18.04;100.00
23733;BME280;12047;53.450;-2.286;2023-04-29T01:23:12;101510.84;;;17.23;100.00
23733;BME280;12047;53.450;-2.286;2023-04-29T01:28:21;101511.53;;;17.92;100.00
23733;BME280;12047;53.450;-2.286;2023-04-29T01:38:48;101506.16;;;17.92;100.00
23733;BME280;12047;53.450;-2.286;2023-04-29T01:43:55;101512.53;;;17.99;100.00
23733;BME280;12047;53.450;-2.286;2023-04-29T01:48:57;101520.00;;;17.55;100.00
23733;BME280;12047;53.450;-2.286;2023-04-29T01:53:57;101515.47;;;17.63;100.00
23733;BME280;12047;53.450;-2.286;2023-04-29T01:58:58;101520.69;;;17.65;100.00
23733;BME280;12047;53.450;-2.286;2023-04-29T02:04:01;101518.03;;;17.65;100.00
23733;BME280;12047;53.450;-2.286;2023-04-29T02:09:01;101517.06;;;17.90;100.00
23733;BME280;12047;53.450;-2.286;2023-04-29T02:14:02;101519.06;;;17.96;100.00
23733;BME280;12047;53.450;-2.286;2023-04-29T02:19:02;101525.34;;;17.63;100.00
23733;BME280;12047;53.450;-2.286;2023-04-29T02:24:03;101516.41;;;17.38;100.00
23733;BME280;12047;53.450;-2.286;2023-04-29T02:29:03;101505.84;;;16.43;100.00
23733;BME280;12047;53.450;-2.286;2023-04-29T02:34:04;101517.16;;;17.56;100.00
23733;BME280;12047;53.450;-2.286;2023-04-29T02:39:04;101526.28;;;16.95;100.00
23733;BME280;12047;53.450;-2.286;2023-04-29T02:44:05;101525.50;;;17.61;100.00
23733;BME280;12047;53.450;-2.286;2023-04-29T02:49:06;101528.88;;;17.63;100.00
23733;BME280;12047;53.450;-2.286;2023-04-29T02:54:06;101523.19;;;17.16;100.00
23733;BME280;12047;53.450;-2.286;2023-04-29T02:59:07;101526.75;;;16.91;100.00
23733;BME280;12047;53.450;-2.286;2023-04-29T03:04:07;101535.44;;;17.69;100.00
23733;BME280;12047;53.450;-2.286;2023-04-29T03:09:08;101529.72;;;17.64;100.00
23733;BME280;12047;53.450;-2.286;2023-04-29T03:14:08;101540.28;;;17.65;100.00
23733;BME280;12047;53.450;-2.286;2023-04-29T03:19:09;101551.75;;;17.92;100.00
23733;BME280;12047;53.450;-2.286;2023-04-29T03:24:09;101547.06;;;17.94;100.00
23733;BME280;12047;53.450;-2.286;2023-04-29T03:29:10;101555.25;;;17.84;100.00
23733;BME280;12047;53.450;-2.286;2023-04-29T03:34:10;101544.28;;;17.53;100.00
23733;BME280;12047;53.450;-2.286;2023-04-29T03:39:11;101553.28;;;17.44;100.00
23733;BME280;12047;53.450;-2.286;2023-04-29T03:44:12;101546.47;;;16.82;100.00
23733;BME280;12047;53.450;-2.286;2023-04-29T03:49:12;101555.97;;;16.76;100.00
23733;BME280;12047;53.450;-2.286;2023-04-29T03:54:13;101558.16;;;17.49;100.00
23733;BME280;12047;53.450;-2.286;2023-04-29T03:59:14;101558.31;;;16.79;100.00
23733;BME280;12047;53.450;-2.286;2023-04-29T04:04:14;101562.09;;;16.51;100.00
23733;BME280;12047;53.450;-2.286;2023-04-29T04:09:15;101563.63;;;17.31;100.00
23733;BME280;12047;53.450;-2.286;2023-04-29T04:14:15;101562.81;;;17.47;100.00
23733;BME280;12047;53.450;-2.286;2023-04-29T04:19:16;101561.47;;;17.09;100.00
23733;BME280;12047;53.450;-2.286;2023-04-29T04:24:18;101557.78;;;17.44;100.00
23733;BME280;12047;53.450;-2.286;2023-04-29T04:29:18;101559.00;;;16.81;100.00
23733;BME280;12047;53.450;-2.286;2023-04-29T04:34:18;101564.31;;;16.38;100.00
23733;BME280;12047;53.450;-2.286;2023-04-29T04:39:19;101571.59;;;16.10;100.00
23733;BME280;12047;53.450;-2.286;2023-04-29T04:44:20;101564.91;;;16.06;100.00
23733;BME280;12047;53.450;-2.286;2023-04-29T04:49:22;101564.34;;;15.84;100.00
23733;BME280;12047;53.450;-2.286;2023-04-29T04:54:23;101567.63;;;16.14;100.00
23733;BME280;12047;53.450;-2.286;2023-04-29T04:59:24;101571.00;;;15.80;100.00
23733;BME280;12047;53.450;-2.286;2023-04-29T05:04:24;101573.88;;;17.10;100.00
23733;BME280;12047;53.450;-2.286;2023-04-29T05:09:25;101570.44;;;16.48;100.00
23733;BME280;12047;53.450;-2.286;2023-04-29T05:14:26;101575.50;;;15.80;100.00
23733;BME280;12047;53.450;-2.286;2023-04-29T05:19:26;101586.94;;;16.43;100.00
23733;BME280;12047;53.450;-2.286;2023-04-29T05:24:27;101588.41;;;16.55;100.00
23733;BME280;12047;53.450;-2.286;2023-04-29T05:29:29;101592.78;;;17.42;100.00
23733;BME280;12047;53.450;-2.286;2023-04-29T05:34:30;101597.56;;;16.35;100.00
23733;BME280;12047;53.450;-2.286;2023-04-29T05:39:30;101600.66;;;16.22;100.00
23733;BME280;12047;53.450;-2.286;2023-04-29T05:44:31;101596.16;;;16.23;100.00
23733;BME280;12047;53.450;-2.286;2023-04-29T05:49:32;101604.47;;;16.20;100.00
23733;BME280;12047;53.450;-2.286;2023-04-29T05:54:32;101606.06;;;16.92;100.00
23733;BME280;12047;53.450;-2.286;2023-04-29T05:59:33;101600.69;;;16.66;100.00
23733;BME280;12047;53.450;-2.286;2023-04-29T06:04:33;101612.78;;;17.64;100.00
23733;BME280;12047;53.450;-2.286;2023-04-29T06:09:35;101604.75;;;16.52;100.00
23733;BME280;12047;53.450;-2.286;2023-04-29T06:14:35;101611.03;;;17.73;100.00
23733;BME280;12047;53.450;-2.286;2023-04-29T06:19:36;101630.59;;;18.40;100.00
23733;BME280;12047;53.450;-2.286;2023-04-29T06:24:37;101620.34;;;16.57;100.00
23733;BME280;12047;53.450;-2.286;2023-04-29T06:29:37;101620.34;;;16.57;100.00
23733;BME280;12047;53.450;-2.286;2023-04-29T06:34:38;101624.44;;;17.13;100.00
23733;BME280;12047;53.450;-2.286;2023-04-29T06:39:39;101632.50;;;17.89;100.00
23733;BME280;12047;53.450;-2.286;2023-04-29T06:44:39;101639.00;;;17.44;100.00
23733;BME280;12047;53.450;-2.286;2023-04-29T06:49:40;101648.06;;;16.91;100.00
23733;BME280;12047;53.450;-2.286;2023-04-29T06:54:42;101652.88;;;17.06;100.00
23733;BME280;12047;53.450;-2.286;2023-04-29T06:59:43;101648.97;;;17.26;100.00
23733;BME280;12047;53.450;-2.286;2023-04-29T07:04:43;101653.59;;;17.84;100.00
23733;BME280;12047;53.450;-2.286;2023-04-29T07:09:44;101662.59;;;17.07;100.00
23733;BME280;12047;53.450;-2.286;2023-04-29T07:14:44;101657.63;;;17.80;100.00
23733;BME280;12047;53.450;-2.286;2023-04-29T07:19:45;101660.22;;;17.38;100.00
23733;BME280;12047;53.450;-2.286;2023-04-29T07:24:45;101656.78;;;17.79;100.00
23733;BME280;12047;53.450;-2.286;2023-04-29T07:29:46;101665.66;;;17.80;100.00
23733;BME280;12047;53.450;-2.286;2023-04-29T07:34:48;101666.59;;;19.51;100.00
23733;BME280;12047;53.450;-2.286;2023-04-29T07:39:48;101673.06;;;18.85;100.00
23733;BME280;12047;53.450;-2.286;2023-04-29T07:44:48;101678.25;;;20.13;100.00
23733;BME280;12047;53.450;-2.286;2023-04-29T07:49:49;101680.66;;;20.31;100.00
23733;BME280;12047;53.450;-2.286;2023-04-29T07:54:49;101682.06;;;21.10;100.00
23733;BME280;12047;53.450;-2.286;2023-04-29T07:59:53;101679.81;;;20.30;100.00
23733;BME280;12047;53.450;-2.286;2023-04-29T08:04:54;101689.56;;;21.23;100.00
23733;BME280;12047;53.450;-2.286;2023-04-29T08:09:55;101696.44;;;20.65;100.00
23733;BME280;12047;53.450;-2.286;2023-04-29T08:14:55;101698.63;;;22.46;100.00
23733;BME280;12047;53.450;-2.286;2023-04-29T08:19:55;101691.25;;;21.68;100.00
23733;BME280;12047;53.450;-2.286;2023-04-29T08:24:56;101707.09;;;22.22;100.00
23733;BME280;12047;53.450;-2.286;2023-04-29T08:29:56;101703.00;;;20.40;100.00
23733;BME280;12047;53.450;-2.286;2023-04-29T08:34:57;101701.56;;;22.30;100.00
23733;BME280;12047;53.450;-2.286;2023-04-29T08:39:57;101701.72;;;21.92;100.00
23733;BME280;12047;53.450;-2.286;2023-04-29T08:44:58;101717.66;;;21.72;100.00
23733;BME280;12047;53.450;-2.286;2023-04-29T08:50:02;101708.75;;;22.80;100.00
23733;BME280;12047;53.450;-2.286;2023-04-29T08:55:06;101715.00;;;22.23;100.00
23733;BME280;12047;53.450;-2.286;2023-04-29T09:00:08;101715.59;;;22.04;100.00
23733;BME280;12047;53.450;-2.286;2023-04-29T09:05:12;101717.22;;;21.17;100.00
23733;BME280;12047;53.450;-2.286;2023-04-29T09:10:13;101713.53;;;22.06;100.00
23733;BME280;12047;53.450;-2.286;2023-04-29T09:15:15;101707.91;;;23.57;100.00
23733;BME280;12047;53.450;-2.286;2023-04-29T09:25:19;101697.75;;;23.37;100.00
23733;BME280;12047;53.450;-2.286;2023-04-29T09:30:21;101704.91;;;23.17;100.00
23733;BME280;12047;53.450;-2.286;2023-04-29T09:35:26;101716.94;;;23.42;100.00
23733;BME280;12047;53.450;-2.286;2023-04-29T09:40:29;101705.00;;;22.38;100.00
23733;BME280;12047;53.450;-2.286;2023-04-29T09:45:37;101710.84;;;23.62;100.00
23733;BME280;12047;53.450;-2.286;2023-04-29T09:50:40;101709.81;;;22.07;100.00
23733;BME280;12047;53.450;-2.286;2023-04-29T10:00:53;101698.31;;;24.63;100.00
23733;BME280;12047;53.450;-2.286;2023-04-29T10:05:55;101707.09;;;24.71;99.90
23733;BME280;12047;53.450;-2.286;2023-04-29T10:11:01;101706.13;;;23.77;98.92
23733;BME280;12047;53.450;-2.286;2023-04-29T10:16:10;101706.84;;;24.80;97.34
23733;BME280;12047;53.450;-2.286;2023-04-29T10:21:16;101697.41;;;23.82;98.96
23733;BME280;12047;53.450;-2.286;2023-04-29T10:26:18;101709.78;;;24.04;98.91
23733;BME280;12047;53.450;-2.286;2023-04-29T10:31:21;101700.47;;;23.65;97.07
23733;BME280;12047;53.450;-2.286;2023-04-29T10:36:24;101704.97;;;23.93;97.09
23733;BME280;12047;53.450;-2.286;2023-04-29T10:41:30;101697.25;;;25.63;89.60
23733;BME280;12047;53.450;-2.286;2023-04-29T10:46:32;101689.69;;;26.23;86.82
23733;BME280;12047;53.450;-2.286;2023-04-29T10:51:43;101695.81;;;25.40;88.16
23733;BME280;12047;53.450;-2.286;2023-04-29T10:56:51;101699.25;;;25.87;88.08
23733;BME280;12047;53.450;-2.286;2023-04-29T11:01:53;101710.81;;;25.63;87.02
23733;BME280;12047;53.450;-2.286;2023-04-29T11:06:55;101716.78;;;23.85;90.65
23733;BME280;12047;53.450;-2.286;2023-04-29T11:22:26;101699.34;;;26.05;83.92
23733;BME280;12047;53.450;-2.286;2023-04-29T11:27:34;101698.22;;;25.82;84.23
23733;BME280;12047;53.450;-2.286;2023-04-29T11:32:37;101699.19;;;25.23;83.72
23733;BME280;12047;53.450;-2.286;2023-04-29T11:37:41;101695.34;;;25.63;87.26
23733;BME280;12047;53.450;-2.286;2023-04-29T11:42:48;101693.94;;;24.82;89.12
23733;BME280;12047;53.450;-2.286;2023-04-29T11:47:48;101693.91;;;26.50;86.14
23733;BME280;12047;53.450;-2.286;2023-04-29T11:52:49;101689.09;;;25.69;88.38
23733;BME280;12047;53.450;-2.286;2023-04-29T11:57:52;101692.00;;;26.13;86.07
23733;BME280;12047;53.450;-2.286;2023-04-29T12:02:55;101686.81;;;27.05;85.23
23733;BME280;12047;53.450;-2.286;2023-04-29T12:07:57;101682.63;;;26.78;85.15
23733;BME280;12047;53.450;-2.286;2023-04-29T12:12:57;101684.69;;;26.13;83.55
23733;BME280;12047;53.450;-2.286;2023-04-29T12:17:59;101680.69;;;26.85;83.45
23733;BME280;12047;53.450;-2.286;2023-04-29T12:23:14;101678.16;;;27.33;84.93
23733;BME280;12047;53.450;-2.286;2023-04-29T12:28:15;101682.63;;;26.78;83.36
23733;BME280;12047;53.450;-2.286;2023-04-29T12:33:27;101671.13;;;26.76;81.99
23733;BME280;12047;53.450;-2.286;2023-04-29T12:38:30;101674.75;;;26.70;79.38
23733;BME280;12047;53.450;-2.286;2023-04-29T12:43:32;101680.03;;;26.90;79.00
23733;BME280;12047;53.450;-2.286;2023-04-29T12:48:34;101673.28;;;26.42;78.94
23733;BME280;12047;53.450;-2.286;2023-04-29T12:53:38;101674.69;;;26.76;77.12
23733;BME280;12047;53.450;-2.286;2023-04-29T12:58:38;101678.06;;;27.65;76.40
23733;BME280;12047;53.450;-2.286;2023-04-29T13:03:38;101679.53;;;27.42;77.54
23733;BME280;12047;53.450;-2.286;2023-04-29T13:08:39;101675.00;;;26.62;80.69
23733;BME280;12047;53.450;-2.286;2023-04-29T13:13:40;101674.75;;;26.70;76.09
23733;BME280;12047;53.450;-2.286;2023-04-29T13:18:40;101670.50;;;26.74;74.17
23733;BME280;12047;53.450;-2.286;2023-04-29T13:23:41;101682.31;;;27.54;75.67
23733;BME280;12047;53.450;-2.286;2023-04-29T13:28:41;101676.28;;;26.84;77.96
23733;BME280;12047;53.450;-2.286;2023-04-29T13:33:42;101677.97;;;26.22;79.91
23733;BME280;12047;53.450;-2.286;2023-04-29T13:38:43;101673.28;;;26.42;77.14
23733;BME280;12047;53.450;-2.286;2023-04-29T13:43:43;101685.31;;;27.09;80.02
23733;BME280;12047;53.450;-2.286;2023-04-29T13:48:44;101684.19;;;27.17;79.56
23733;BME280;12047;53.450;-2.286;2023-04-29T13:53:45;101674.06;;;26.74;77.88
23733;BME280;12047;53.450;-2.286;2023-04-29T13:58:45;101675.03;;;26.87;79.56
23733;BME280;12047;53.450;-2.286;2023-04-29T14:03:46;101672.66;;;26.72;80.67
23733;BME280;12047;53.450;-2.286;2023-04-29T14:08:49;101676.25;;;26.34;82.34
23733;BME280;12047;53.450;-2.286;2023-04-29T14:13:50;101674.00;;;26.81;79.90
23733;BME280;12047;53.450;-2.286;2023-04-29T14:18:50;101668.78;;;26.80;79.36
23733;BME280;12047;53.450;-2.286;2023-04-29T14:23:50;101663.75;;;27.69;79.80
23733;BME280;12047;53.450;-2.286;2023-04-29T14:28:51;101673.94;;;27.19;79.11
23733;BME280;12047;53.450;-2.286;2023-04-29T14:34:01;101664.31;;;27.35;79.24
23733;BME280;12047;53.450;-2.286;2023-04-29T14:39:04;101662.16;;;27.62;80.63
23733;BME280;12047;53.450;-2.286;2023-04-29T14:44:05;101666.22;;;27.34;80.15
23733;BME280;12047;53.450;-2.286;2023-04-29T14:49:05;101671.97;;;27.01;74.67
23733;BME280;12047;53.450;-2.286;2023-04-29T14:54:06;101666.44;;;27.88;76.04
23733;BME280;12047;53.450;-2.286;2023-04-29T14:59:06;101661.53;;;27.78;73.34
23733;BME280;12047;53.450;-2.286;2023-04-29T15:04:07;101670.81;;;27.34;77.90
23733;BME280;12047;53.450;-2.286;2023-04-29T15:09:08;101664.97;;;28.03;72.98
23733;BME280;12047;53.450;-2.286;2023-04-29T15:14:11;101665.25;;;27.84;76.40
23733;BME280;12047;53.450;-2.286;2023-04-29T15:19:11;101671.44;;;27.72;74.09
23733;BME280;12047;53.450;-2.286;2023-04-29T15:24:12;101669.13;;;28.06;70.30
23733;BME280;12047;53.450;-2.286;2023-04-29T15:29:12;101664.53;;;28.06;70.29
23733;BME280;12047;53.450;-2.286;2023-04-29T15:34:13;101672.78;;;28.00;68.38
23733;BME280;12047;53.450;-2.286;2023-04-29T15:39:13;101705.41;;;24.90;83.26
23733;BME280;12047;53.450;-2.286;2023-04-29T15:44:14;101701.66;;;24.78;90.94
23733;BME280;12047;53.450;-2.286;2023-04-29T15:49:14;101703.97;;;25.07;91.39
23733;BME280;12047;53.450;-2.286;2023-04-29T15:54:14;101703.56;;;25.17;92.97
23733;BME280;12047;53.450;-2.286;2023-04-29T15:59:16;101713.50;;;22.99;100.00
23733;BME280;12047;53.450;-2.286;2023-04-29T16:04:16;101710.81;;;24.03;100.00
23733;BME280;12047;53.450;-2.286;2023-04-29T16:09:16;101708.81;;;23.77;100.00
23733;BME280;12047;53.450;-2.286;2023-04-29T16:14:17;101717.09;;;23.62;100.00
23733;BME280;12047;53.450;-2.286;2023-04-29T16:19:18;101719.03;;;22.70;100.00
23733;BME280;12047;53.450;-2.286;2023-04-29T16:24:18;101727.84;;;22.21;100.00
23733;BME280;12047;53.450;-2.286;2023-04-29T16:29:18;101725.81;;;22.23;100.00
23733;BME280;12047;53.450;-2.286;2023-04-29T16:34:19;101722.59;;;22.34;100.00
23733;BME280;12047;53.450;-2.286;2023-04-29T16:39:19;101720.41;;;21.35;100.00
23733;BME280;12047;53.450;-2.286;2023-04-29T16:44:20;101722.75;;;21.23;100.00
23733;BME280;12047;53.450;-2.286;2023-04-29T16:49:24;101727.19;;;20.48;100.00
23733;BME280;12047;53.450;-2.286;2023-04-29T16:54:27;101728.31;;;20.22;100.00
23733;BME280;12047;53.450;-2.286;2023-04-29T16:59:29;101723.22;;;20.58;100.00
23733;BME280;12047;53.450;-2.286;2023-04-29T17:04:30;101731.34;;;20.19;100.00
23733;BME280;12047;53.450;-2.286;2023-04-29T17:09:30;101732.97;;;20.82;100.00
23733;BME280;12047;53.450;-2.286;2023-04-29T17:14:31;101724.81;;;20.53;100.00
23733;BME280;12047;53.450;-2.286;2023-04-29T17:19:32;101722.66;;;20.09;100.00
23733;BME280;12047;53.450;-2.286;2023-04-29T17:24:32;101718.09;;;20.49;100.00
23733;BME280;12047;53.450;-2.286;2023-04-29T17:29:33;101724.84;;;20.05;100.00
23733;BME280;12047;53.450;-2.286;2023-04-29T17:34:33;101719.38;;;19.91;100.00
23733;BME280;12047;53.450;-2.286;2023-04-29T17:39:35;101726.50;;;20.15;100.00
23733;BME280;12047;53.450;-2.286;2023-04-29T17:44:36;101722.28;;;20.74;100.00
23733;BME280;12047;53.450;-2.286;2023-04-29T17:49:37;101716.06;;;20.51;100.00
23733;BME280;12047;53.450;-2.286;2023-04-29T17:54:40;101715.00;;;20.29;100.00
23733;BME280;12047;53.450;-2.286;2023-04-29T17:59:41;101713.31;;;19.97;100.00
23733;BME280;12047;53.450;-2.286;2023-04-29T18:04:42;101704.47;;;20.50;100.00
23733;BME280;12047;53.450;-2.286;2023-04-29T18:09:42;101708.91;;;20.81;100.00
23733;BME280;12047;53.450;-2.286;2023-04-29T18:14:43;101703.53;;;20.81;100.00
23733;BME280;12047;53.450;-2.286;2023-04-29T18:19:45;101699.59;;;20.46;100.00
23733;BME280;12047;53.450;-2.286;2023-04-29T18:24:46;101696.84;;;20.77;100.00
23733;BME280;12047;53.450;-2.286;2023-04-29T18:29:48;101720.63;;;21.11;100.00
23733;BME280;12047;53.450;-2.286;2023-04-29T18:34:49;101728.19;;;20.16;100.00
23733;BME280;12047;53.450;-2.286;2023-04-29T18:39:50;101719.56;;;20.20;100.00
23733;BME280;12047;53.450;-2.286;2023-04-29T18:44:50;101726.06;;;20.65;100.00
23733;BME280;12047;53.450;-2.286;2023-04-29T18:49:51;101720.97;;;20.47;100.00
23733;BME280;12047;53.450;-2.286;2023-04-29T18:54:52;101722.34;;;20.35;100.00
23733;BME280;12047;53.450;-2.286;2023-04-29T18:59:52;101724.44;;;20.79;100.00
23733;BME280;12047;53.450;-2.286;2023-04-29T19:04:53;101724.31;;;20.18;100.00
23733;BME280;12047;53.450;-2.286;2023-04-29T19:09:53;101722.31;;;20.12;100.00
23733;BME280;12047;53.450;-2.286;2023-04-29T19:14:58;101728.25;;;20.84;100.00
23733;BME280;12047;53.450;-2.286;2023-04-29T19:19:59;101732.09;;;19.50;100.00
23733;BME280;12047;53.450;-2.286;2023-04-29T19:24:59;101738.78;;;20.09;100.00
23733;BME280;12047;53.450;-2.286;2023-04-29T19:30:00;101734.34;;;19.85;100.00
23733;BME280;12047;53.450;-2.286;2023-04-29T19:35:00;101742.16;;;19.56;100.00
23733;BME280;12047;53.450;-2.286;2023-04-29T19:40:01;101737.84;;;20.02;100.00
23733;BME280;12047;53.450;-2.286;2023-04-29T19:45:03;101737.41;;;20.21;100.00
23733;BME280;12047;53.450;-2.286;2023-04-29T19:50:06;101750.63;;;20.00;100.00
23733;BME280;12047;53.450;-2.286;2023-04-29T19:55:07;101753.34;;;19.92;100.00
23733;BME280;12047;53.450;-2.286;2023-04-29T20:00:09;101758.34;;;20.03;100.00
23733;BME280;12047;53.450;-2.286;2023-04-29T20:05:12;101764.78;;;19.94;100.00
23733;BME280;12047;53.450;-2.286;2023-04-29T20:10:13;101767.31;;;19.87;100.00
23733;BME280;12047;53.450;-2.286;2023-04-29T20:15:13;101771.16;;;19.85;100.00
23733;BME280;12047;53.450;-2.286;2023-04-29T20:20:14;101773.75;;;19.70;100.00
23733;BME280;12047;53.450;-2.286;2023-04-29T20:25:14;101776.97;;;19.25;100.00
23733;BME280;12047;53.450;-2.286;2023-04-29T20:30:15;101784.78;;;19.83;100.00
23733;BME280;12047;53.450;-2.286;2023-04-29T20:35:15;101776.78;;;19.67;100.00
23733;BME280;12047;53.450;-2.286;2023-04-29T20:40:17;101784.50;;;19.37;100.00
23733;BME280;12047;53.450;-2.286;2023-04-29T20:45:17;101789.72;;;19.55;100.00
23733;BME280;12047;53.450;-2.286;2023-04-29T20:50:18;101782.34;;;19.41;100.00
23733;BME280;12047;53.450;-2.286;2023-04-29T20:55:18;101773.34;;;19.97;100.00
23733;BME280;12047;53.450;-2.286;2023-04-29T21:00:19;101776.81;;;19.51;100.00
23733;BME280;12047;53.450;-2.286;2023-04-29T21:05:19;101780.34;;;19.51;100.00
23733;BME280;12047;53.450;-2.286;2023-04-29T21:10:20;101784.69;;;19.20;100.00
23733;BME280;12047;53.450;-2.286;2023-04-29T21:15:21;101785.84;;;19.50;100.00
23733;BME280;12047;53.450;-2.286;2023-04-29T21:20:22;101777.28;;;19.46;100.00
23733;BME280;12047;53.450;-2.286;2023-04-29T21:25:23;101776.97;;;19.49;100.00
23733;BME280;12047;53.450;-2.286;2023-04-29T21:30:23;101784.50;;;19.70;100.00
23733;BME280;12047;53.450;-2.286;2023-04-29T21:35:25;101788.03;;;19.79;100.00
23733;BME280;12047;53.450;-2.286;2023-04-29T21:40:26;101783.19;;;19.25;100.00
23733;BME280;12047;53.450;-2.286;2023-04-29T21:45:26;101786.22;;;19.55;100.00
23733;BME280;12047;53.450;-2.286;2023-04-29T21:50:27;101790.72;;;19.46;100.00
23733;BME280;12047;53.450;-2.286;2023-04-29T21:55:27;101791.09;;;19.51;100.00
23733;BME280;12047;53.450;-2.286;2023-04-29T22:00:28;101772.97;;;19.29;100.00
23733;BME280;12047;53.450;-2.286;2023-04-29T22:05:39;101779.13;;;19.62;100.00
23733;BME280;12047;53.450;-2.286;2023-04-29T22:10:40;101775.03;;;19.82;100.00
23733;BME280;12047;53.450;-2.286;2023-04-29T22:15:40;101777.28;;;19.79;100.00
23733;BME280;12047;53.450;-2.286;2023-04-29T22:20:41;101780.47;;;19.33;100.00
23733;BME280;12047;53.450;-2.286;2023-04-29T22:25:41;101778.81;;;19.32;100.00
23733;BME280;12047;53.450;-2.286;2023-04-29T22:30:42;101780.00;;;19.14;100.00
23733;BME280;12047;53.450;-2.286;2023-04-29T22:35:42;101778.13;;;19.38;100.00
23733;BME280;12047;53.450;-2.286;2023-04-29T22:40:50;101778.81;;;19.24;100.00
23733;BME280;12047;53.450;-2.286;2023-04-29T22:45:54;101768.59;;;19.03;100.00
23733;BME280;12047;53.450;-2.286;2023-04-29T22:50:56;101771.75;;;19.48;100.00
23733;BME280;12047;53.450;-2.286;2023-04-29T22:55:58;101767.75;;;19.19;100.00
23733;BME280;12047;53.450;-2.286;2023-04-29T23:00:59;101753.31;;;19.20;100.00
23733;BME280;12047;53.450;-2.286;2023-04-29T23:06:00;101757.50;;;19.23;100.00
23733;BME280;12047;53.450;-2.286;2023-04-29T23:11:01;101758.00;;;19.10;100.00
23733;BME280;12047;53.450;-2.286;2023-04-29T23:16:01;101759.00;;;19.17;100.00
23733;BME280;12047;53.450;-2.286;2023-04-29T23:21:02;101754.13;;;18.88;100.00
23733;BME280;12047;53.450;-2.286;2023-04-29T23:26:03;101751.13;;;18.99;100.00
23733;BME280;12047;53.450;-2.286;2023-04-29T23:31:04;101751.09;;;19.32;100.00
23733;BME280;12047;53.450;-2.286;2023-04-29T23:36:05;101750.25;;;18.66;100.00
23733;BME280;12047;53.450;-2.286;2023-04-29T23:41:05;101750.63;;;18.96;100.00
23733;BME280;12047;53.450;-2.286;2023-04-29T23:46:06;101740.38;;;18.99;100.00
23733;BME280;12047;53.450;-2.286;2023-04-29T23:51:06;101739.53;;;18.91;100.00
23733;BME280;12047;53.450;-2.286;2023-04-29T23:56:07;101738.38;;;19.01;100.00
